Anzahl Datensätze: 48
min. Temperatur: 8.9 °C
max. Temperatur: 11.4 °C
max. Windgeschwindigkeit: 40.3 km/h
Niederschlagsumme: 0.0 mm
| Datum |
Zeit |
Temp °C |
Feuchte % |
Taupunkt °C |
Luftdruck hPa |
Wind km/h |
Windrichtung |
Strahlung w/m² |
Niederschlag mm |
|---|---|---|---|---|---|---|---|---|---|
| 14.11.2023 | 00:00 | 9.4 | 88 | 7.5 | 1010.0 | 0.0 | WNW | 0 | 0.0 |
| 14.11.2023 | 00:30 | 9.2 | 88 | 7.3 | 1010.2 | 0.0 | WNW | 0 | 0.0 |
| 14.11.2023 | 01:00 | 9.0 | 88 | 7.1 | 1010.3 | 0.0 | NW | 0 | 0.0 |
| 14.11.2023 | 01:30 | 8.9 | 89 | 7.2 | 1010.2 | 0.0 | N | 0 | 0.0 |
| 14.11.2023 | 02:00 | 9.2 | 89 | 7.5 | 1010.1 | 0.0 | W | 0 | 0.0 |
| 14.11.2023 | 02:30 | 9.5 | 89 | 7.8 | 1010.1 | 0.0 | NW | 0 | 0.0 |
| 14.11.2023 | 03:00 | 9.8 | 88 | 7.9 | 1010.1 | 0.0 | W | 0 | 0.0 |
| 14.11.2023 | 03:30 | 10.1 | 88 | 8.2 | 1010.8 | 0.0 | W | 0 | 0.0 |
| 14.11.2023 | 04:00 | 10.5 | 86 | 8.3 | 1011.1 | 0.0 | WNW | 0 | 0.0 |
| 14.11.2023 | 04:30 | 10.6 | 86 | 8.4 | 1011.2 | 0.0 | WNW | 0 | 0.0 |
| 14.11.2023 | 05:00 | 10.6 | 86 | 8.4 | 1011.1 | 0.0 | WNW | 0 | 0.0 |
| 14.11.2023 | 05:30 | 10.6 | 86 | 8.4 | 1011.1 | 0.0 | WNW | 0 | 0.0 |
| 14.11.2023 | 06:00 | 10.7 | 86 | 8.5 | 1011.5 | 0.0 | SW | 0 | 0.0 |
| 14.11.2023 | 06:30 | 10.6 | 87 | 8.5 | 1011.4 | 0.0 | W | 0 | 0.0 |
| 14.11.2023 | 07:00 | 10.6 | 87 | 8.5 | 1011.8 | 0.0 | WNW | 0 | 0.0 |
| 14.11.2023 | 07:30 | 10.4 | 87 | 8.3 | 1011.6 | 0.0 | W | 0 | 0.0 |
| 14.11.2023 | 08:00 | 10.5 | 87 | 8.4 | 1011.9 | 0.0 | W | 0 | 0.0 |
| 14.11.2023 | 08:30 | 10.6 | 88 | 8.7 | 1011.6 | 0.0 | W | 0 | 0.0 |
| 14.11.2023 | 09:00 | 10.6 | 88 | 8.7 | 1011.7 | 0.0 | WNW | 7 | 0.0 |
| 14.11.2023 | 09:30 | 10.7 | 88 | 8.8 | 1011.7 | 0.0 | WNW | 23 | 0.0 |
| 14.11.2023 | 10:00 | 10.9 | 87 | 8.8 | 1011.7 | 0.0 | W | 25 | 0.0 |
| 14.11.2023 | 10:30 | 10.8 | 88 | 8.9 | 1012.1 | 0.0 | W | 19 | 0.0 |
| 14.11.2023 | 11:00 | 10.9 | 87 | 8.8 | 1011.9 | 0.0 | W | 30 | 0.0 |
| 14.11.2023 | 11:30 | 11.1 | 87 | 9.0 | 1011.5 | 0.0 | WSW | 51 | 0.0 |
| 14.11.2023 | 12:00 | 11.3 | 86 | 9.0 | 1011.1 | 0.0 | WSW | 46 | 0.0 |
| 14.11.2023 | 12:30 | 11.4 | 86 | 9.1 | 1010.4 | 0.0 | W | 70 | 0.0 |
| 14.11.2023 | 13:00 | 11.4 | 87 | 9.3 | 1010.0 | 0.0 | WNW | 54 | 0.0 |
| 14.11.2023 | 13:30 | 11.4 | 87 | 9.3 | 1009.6 | 0.0 | W | 63 | 0.0 |
| 14.11.2023 | 14:00 | 11.4 | 88 | 9.5 | 1009.0 | 0.0 | WNW | 18 | 0.0 |
| 14.11.2023 | 14:30 | 11.1 | 89 | 9.4 | 1008.8 | 0.0 | NW | 30 | 0.0 |
| 14.11.2023 | 15:00 | 11.0 | 89 | 9.3 | 1008.4 | 0.0 | WSW | 40 | 0.0 |
| 14.11.2023 | 15:30 | 10.9 | 89 | 9.2 | 1007.9 | 0.0 | W | 16 | 0.0 |
| 14.11.2023 | 16:00 | 10.6 | 89 | 8.9 | 1007.2 | 0.0 | W | 7 | 0.0 |
| 14.11.2023 | 16:30 | 10.3 | 91 | 8.9 | 1006.8 | 0.0 | WSW | 0 | 0.0 |
| 14.11.2023 | 17:00 | 10.2 | 92 | 9.0 | 1006.4 | 0.0 | SW | 0 | 0.0 |
| 14.11.2023 | 17:30 | 10.3 | 92 | 9.1 | 1006.3 | 0.0 | WSW | 0 | 0.0 |
| 14.11.2023 | 18:00 | 9.9 | 91 | 8.5 | 1006.5 | 0.0 | WNW | 0 | 0.0 |
| 14.11.2023 | 18:30 | 10.0 | 91 | 8.6 | 1006.3 | 0.0 | W | 0 | 0.0 |
| 14.11.2023 | 19:00 | 10.2 | 91 | 8.8 | 1006.5 | 0.0 | W | 0 | 0.0 |
| 14.11.2023 | 19:30 | 10.2 | 88 | 8.3 | 1007.0 | 0.0 | WNW | 0 | 0.0 |
| 14.11.2023 | 20:00 | 9.8 | 87 | 7.7 | 1007.7 | 0.0 | W | 0 | 0.0 |
| 14.11.2023 | 20:30 | 9.6 | 87 | 7.5 | 1008.4 | 0.0 | WNW | 0 | 0.0 |
| 14.11.2023 | 21:00 | 9.5 | 87 | 7.4 | 1009.0 | 0.0 | NW | 0 | 0.0 |
| 14.11.2023 | 21:30 | 9.5 | 87 | 7.4 | 1009.8 | 0.0 | W | 0 | 0.0 |
| 14.11.2023 | 22:00 | 9.6 | 87 | 7.5 | 1010.5 | 0.0 | NW | 0 | 0.0 |
| 14.11.2023 | 22:30 | 9.4 | 89 | 7.7 | 1011.1 | 0.0 | W | 0 | 0.0 |
| 14.11.2023 | 23:00 | 9.3 | 90 | 7.7 | 1011.8 | 0.0 | WNW | 0 | 0.0 |
| 14.11.2023 | 23:30 | 9.3 | 91 | 7.9 | 1012.5 | 0.0 | NNW | 0 | 0.0 |